Time;durP1;ratioP1;P1;durP2;ratioP2;P2;SDS_P1;SDS_P2;PMS_P1;PMS_P2;Temp;Humidity;BMP_temperature;BMP_pressure;BME280_temperature;BME280_humidity;BME280_pressure;Samples;Min_cycle;Max_cycle;Signal;HPM_P1;HPM_P2
2023/05/10 00:01:48;;;;;;;7.70;4.67;;;14.40;99.90;;;;;;5024663;28;20953;-49
2023/05/10 00:04:14;;;;;;;10.87;5.07;;;14.40;99.90;;;;;;5024918;28;20185;-48
2023/05/10 00:06:40;;;;;;;7.30;4.80;;;14.30;99.90;;;;;;5024508;28;20248;-48
2023/05/10 00:09:05;;;;;;;5.80;4.73;;;14.30;99.90;;;;;;5025485;28;20215;-48
2023/05/10 00:11:31;;;;;;;7.87;5.77;;;14.30;99.90;;;;;;5022804;28;20556;-48
2023/05/10 00:13:56;;;;;;;8.20;4.97;;;14.30;99.90;;;;;;5024755;28;20741;-49
2023/05/10 00:16:22;;;;;;;5.33;4.83;;;14.30;99.90;;;;;;5025364;28;20187;-48
2023/05/10 00:18:47;;;;;;;5.57;4.93;;;14.30;99.90;;;;;;5023247;28;20216;-48
2023/05/10 00:21:13;;;;;;;5.80;5.20;;;14.20;99.90;;;;;;5023451;28;22098;-48
2023/05/10 00:23:39;;;;;;;6.93;5.50;;;14.20;99.90;;;;;;5023403;28;20189;-48
2023/05/10 00:26:04;;;;;;;6.40;5.37;;;14.20;99.90;;;;;;5027071;28;20197;-48
2023/05/10 00:28:30;;;;;;;9.90;4.70;;;14.10;99.90;;;;;;5025599;28;20196;-48
2023/05/10 00:30:56;;;;;;;9.50;5.30;;;14.10;99.90;;;;;;5025731;28;20596;-48
2023/05/10 00:33:21;;;;;;;6.23;5.50;;;14.00;99.90;;;;;;5026667;28;20227;-48
2023/05/10 00:35:47;;;;;;;7.30;5.17;;;13.90;99.90;;;;;;5027536;28;20226;-49
2023/05/10 00:38:12;;;;;;;7.20;5.20;;;13.90;99.90;;;;;;5027394;28;20199;-47
2023/05/10 00:40:38;;;;;;;7.00;5.40;;;13.80;99.90;;;;;;5027058;28;20231;-48
2023/05/10 00:43:04;;;;;;;7.17;5.37;;;13.90;99.90;;;;;;5027746;28;20618;-47
2023/05/10 00:45:32;;;;;;;9.00;5.03;;;13.80;99.90;;;;;;5027087;28;20556;-48
2023/05/10 00:47:59;;;;;;;10.20;5.10;;;13.80;99.90;;;;;;5026145;28;20554;-48
2023/05/10 00:50:25;;;;;;;11.27;5.60;;;13.70;99.90;;;;;;5023150;28;20475;-47
2023/05/10 00:52:51;;;;;;;7.47;5.10;;;13.60;99.90;;;;;;5022699;28;20487;-48
2023/05/10 00:55:18;;;;;;;7.70;5.90;;;13.60;99.90;;;;;;5028324;28;20508;-48
2023/05/10 00:57:44;;;;;;;6.27;5.30;;;13.60;99.90;;;;;;5025944;28;20231;-48
2023/05/10 01:00:11;;;;;;;5.87;5.13;;;13.50;99.90;;;;;;5027130;28;20813;-50
2023/05/10 01:02:36;;;;;;;6.17;5.07;;;13.50;99.90;;;;;;5026593;28;20454;-49
2023/05/10 01:05:03;;;;;;;8.97;5.33;;;13.50;99.90;;;;;;5025137;28;20863;-48
2023/05/10 01:07:29;;;;;;;8.70;5.37;;;13.40;99.90;;;;;;5027376;28;20694;-48
2023/05/10 01:09:55;;;;;;;7.90;5.73;;;13.50;99.90;;;;;;5025853;28;20444;-48
2023/05/10 01:12:21;;;;;;;8.77;5.70;;;13.40;99.90;;;;;;5028110;28;20602;-48
2023/05/10 01:14:47;;;;;;;9.40;5.70;;;13.40;99.90;;;;;;5028694;28;21019;-48
2023/05/10 01:17:14;;;;;;;8.80;5.60;;;13.30;99.90;;;;;;5026926;28;20194;-49
2023/05/10 01:19:40;;;;;;;9.53;5.73;;;13.30;99.90;;;;;;5030498;28;20512;-48
2023/05/10 01:22:31;;;;;;;7.77;5.93;;;13.30;99.90;;;;;;5026424;28;20873;-48
2023/05/10 01:25:14;;;;;;;9.47;6.03;;;13.30;99.90;;;;;;5026287;28;20679;-49
2023/05/10 01:28:15;;;;;;;8.73;6.33;;;13.20;99.90;;;;;;5026017;28;20434;-49
2023/05/10 01:30:59;;;;;;;9.70;6.17;;;13.20;99.90;;;;;;5022916;28;20446;-49
2023/05/10 01:33:39;;;;;;;8.00;5.60;;;13.10;99.90;;;;;;5023785;28;20475;-49
2023/05/10 01:36:08;;;;;;;13.10;6.10;;;13.10;99.90;;;;;;5025039;28;20450;-48
2023/05/10 01:39:05;;;;;;;13.80;5.90;;;13.10;99.90;;;;;;5025790;28;20444;-49
2023/05/10 01:42:00;;;;;;;7.67;5.50;;;13.10;99.90;;;;;;5021807;28;20503;-48
2023/05/10 01:44:44;;;;;;;9.67;5.40;;;13.10;99.90;;;;;;5026970;28;20443;-48
2023/05/10 01:47:29;;;;;;;6.43;5.60;;;13.10;99.90;;;;;;5027343;28;20468;-48
2023/05/10 01:49:56;;;;;;;9.30;5.60;;;13.00;99.90;;;;;;5026490;28;20490;-48
2023/05/10 01:52:33;;;;;;;10.20;6.30;;;13.00;99.90;;;;;;5026089;28;20557;-49
2023/05/10 01:55:07;;;;;;;6.60;5.90;;;12.90;99.90;;;;;;5023976;28;20441;-49
2023/05/10 01:57:35;;;;;;;11.90;5.83;;;12.90;99.90;;;;;;5025838;28;20432;-49
2023/05/10 02:00:04;;;;;;;6.97;5.90;;;12.80;99.90;;;;;;5025819;28;20442;-49
2023/05/10 02:02:33;;;;;;;15.93;6.30;;;12.80;99.90;;;;;;5026764;28;20457;-48
2023/05/10 02:04:59;;;;;;;9.50;6.10;;;12.80;99.90;;;;;;5023614;28;20484;-48
2023/05/10 02:07:28;;;;;;;13.33;5.83;;;12.80;99.90;;;;;;5024661;28;20450;-48
2023/05/10 02:09:55;;;;;;;15.83;6.13;;;12.70;99.90;;;;;;5024202;28;20442;-48
2023/05/10 02:12:23;;;;;;;8.37;6.30;;;12.60;99.90;;;;;;5026027;28;20862;-49
2023/05/10 02:14:52;;;;;;;7.57;5.80;;;12.50;99.90;;;;;;5026132;28;20438;-49
2023/05/10 02:17:19;;;;;;;12.47;6.23;;;12.50;99.90;;;;;;5023072;28;20448;-49
2023/05/10 02:19:47;;;;;;;10.50;6.10;;;12.40;99.90;;;;;;5025044;28;20460;-48
2023/05/10 02:22:15;;;;;;;9.20;6.10;;;12.40;99.90;;;;;;5024108;28;20528;-49
2023/05/10 02:24:41;;;;;;;8.10;5.87;;;12.40;99.90;;;;;;5024554;28;20537;-50
2023/05/10 02:27:09;;;;;;;9.37;6.13;;;12.30;99.90;;;;;;5025349;28;20442;-48
2023/05/10 02:29:36;;;;;;;7.30;5.90;;;12.40;99.90;;;;;;5020411;28;20446;-49
2023/05/10 02:32:02;;;;;;;7.73;5.70;;;12.30;99.90;;;;;;5024103;28;20474;-49
2023/05/10 02:34:29;;;;;;;9.10;6.13;;;12.40;99.90;;;;;;5023186;28;20449;-48
2023/05/10 02:36:56;;;;;;;8.17;5.40;;;12.40;99.90;;;;;;5025936;28;20508;-48
2023/05/10 02:39:22;;;;;;;9.40;6.07;;;12.40;99.90;;;;;;5023430;28;20439;-48
2023/05/10 02:41:50;;;;;;;11.77;5.63;;;12.40;99.90;;;;;;5024150;28;20460;-49
2023/05/10 02:44:19;;;;;;;11.20;6.60;;;12.40;99.90;;;;;;5024281;28;20430;-48
2023/05/10 02:46:45;;;;;;;9.40;6.47;;;12.30;99.90;;;;;;5021756;28;20442;-48
2023/05/10 02:49:10;;;;;;;8.30;5.90;;;12.30;99.90;;;;;;5023674;28;20532;-48
2023/05/10 02:51:40;;;;;;;6.70;5.93;;;12.30;99.90;;;;;;5023310;28;20191;-48
2023/05/10 02:54:18;;;;;;;9.03;5.57;;;12.30;99.90;;;;;;5025442;28;20606;-49
2023/05/10 02:57:09;;;;;;;12.67;6.13;;;12.20;99.90;;;;;;5025012;28;20824;-48
2023/05/10 02:59:35;;;;;;;9.90;6.13;;;12.20;99.90;;;;;;5026480;28;20452;-49
2023/05/10 03:02:01;;;;;;;8.03;5.30;;;12.10;99.90;;;;;;5024183;28;20910;-48
2023/05/10 03:04:27;;;;;;;7.07;5.97;;;12.20;99.90;;;;;;5024867;28;20191;-49
2023/05/10 03:06:52;;;;;;;9.00;6.03;;;12.30;99.90;;;;;;5023860;28;20453;-48
2023/05/10 03:09:19;;;;;;;7.00;5.60;;;12.30;99.90;;;;;;5024277;28;20195;-49
2023/05/10 03:12:15;;;;;;;8.47;5.80;;;12.30;99.90;;;;;;5026077;28;20614;-49
2023/05/10 03:14:57;;;;;;;9.03;6.43;;;12.30;99.90;;;;;;5025396;28;20454;-49
2023/05/10 03:17:30;;;;;;;8.87;6.70;;;12.30;99.90;;;;;;5022489;28;20439;-48
2023/05/10 03:19:58;;;;;;;8.63;5.43;;;12.20;99.90;;;;;;5023051;28;20443;-49
2023/05/10 03:22:32;;;;;;;8.50;5.77;;;12.20;99.90;;;;;;5024707;28;20942;-48
2023/05/10 03:25:00;;;;;;;8.10;5.60;;;12.30;99.90;;;;;;5023552;28;20426;-48
2023/05/10 03:27:27;;;;;;;6.87;5.93;;;12.30;99.90;;;;;;5024748;28;20508;-49
2023/05/10 03:29:54;;;;;;;7.27;6.07;;;12.30;99.90;;;;;;5021517;28;20468;-49
2023/05/10 03:32:20;;;;;;;11.57;5.93;;;12.30;99.90;;;;;;5024116;28;20445;-48
2023/05/10 03:34:45;;;;;;;6.93;5.90;;;12.30;99.90;;;;;;5024142;28;20434;-49
2023/05/10 03:37:11;;;;;;;6.40;5.80;;;12.20;99.90;;;;;;5025349;28;20190;-48
2023/05/10 03:39:37;;;;;;;8.40;6.00;;;12.20;99.90;;;;;;5025414;28;20188;-49
2023/05/10 03:42:02;;;;;;;11.13;5.93;;;12.30;99.90;;;;;;5023301;28;20215;-49
2023/05/10 03:44:28;;;;;;;9.53;6.17;;;12.30;99.90;;;;;;5024596;28;20195;-48
2023/05/10 03:46:53;;;;;;;7.30;5.87;;;12.20;99.90;;;;;;5023179;28;20230;-49
2023/05/10 03:49:19;;;;;;;9.50;6.43;;;12.20;99.90;;;;;;5021072;28;20266;-49
2023/05/10 03:51:44;;;;;;;8.30;6.30;;;12.20;99.90;;;;;;5023650;28;20191;-48
2023/05/10 03:54:10;;;;;;;8.27;6.30;;;12.30;99.90;;;;;;5024848;28;20233;-48
2023/05/10 03:56:36;;;;;;;7.63;6.00;;;12.30;99.90;;;;;;5024641;28;20188;-49
2023/05/10 03:59:01;;;;;;;6.40;5.73;;;12.30;99.90;;;;;;5027169;28;20194;-49
2023/05/10 04:01:27;;;;;;;7.20;5.63;;;12.30;99.90;;;;;;5027306;28;20293;-49
2023/05/10 04:03:52;;;;;;;8.00;6.10;;;12.30;99.90;;;;;;5027231;28;20219;-48
2023/05/10 04:06:18;;;;;;;10.77;5.93;;;12.20;99.90;;;;;;5028156;28;20187;-49
2023/05/10 04:08:43;;;;;;;9.67;5.67;;;12.30;99.90;;;;;;5025571;28;20306;-49
2023/05/10 04:11:11;;;;;;;7.40;5.70;;;12.30;99.90;;;;;;5028124;28;20188;-49
2023/05/10 04:13:37;;;;;;;11.23;6.00;;;12.30;99.90;;;;;;5026076;28;20223;-49
2023/05/10 04:16:03;;;;;;;7.30;6.50;;;12.40;99.90;;;;;;5024072;28;20481;-48
2023/05/10 04:18:30;;;;;;;7.77;5.80;;;12.40;99.90;;;;;;5025146;28;20438;-48
2023/05/10 04:20:56;;;;;;;7.30;5.70;;;12.40;99.90;;;;;;5025863;28;20465;-49
2023/05/10 04:23:21;;;;;;;8.60;5.63;;;12.40;99.90;;;;;;5027497;28;20434;-49
2023/05/10 04:25:47;;;;;;;7.80;5.90;;;12.50;99.90;;;;;;5024627;28;21582;-49
2023/05/10 04:28:13;;;;;;;8.70;6.10;;;12.50;99.90;;;;;;5028776;28;20234;-48
2023/05/10 04:30:40;;;;;;;7.77;6.10;;;12.50;99.90;;;;;;5025028;28;20208;-48
2023/05/10 04:33:05;;;;;;;9.73;6.43;;;12.60;99.90;;;;;;5022893;28;20259;-49
2023/05/10 04:35:31;;;;;;;13.57;5.97;;;12.60;99.90;;;;;;5027452;28;20950;-50
2023/05/10 04:37:57;;;;;;;6.87;5.83;;;12.60;99.90;;;;;;5025329;28;20188;-49
2023/05/10 04:40:22;;;;;;;12.83;6.00;;;12.60;99.90;;;;;;5027110;28;20194;-48
2023/05/10 04:42:48;;;;;;;10.80;6.47;;;12.60;99.90;;;;;;5027602;28;20651;-48
2023/05/10 04:45:16;;;;;;;10.87;5.80;;;12.60;99.90;;;;;;5026660;28;20202;-48
2023/05/10 04:47:42;;;;;;;10.60;6.33;;;12.70;99.90;;;;;;5025891;28;20192;-49
2023/05/10 04:50:08;;;;;;;16.83;5.93;;;12.80;99.90;;;;;;5026858;28;20986;-49
2023/05/10 04:52:33;;;;;;;10.63;6.43;;;12.80;99.90;;;;;;5026174;28;20648;-49
2023/05/10 04:54:59;;;;;;;7.30;6.10;;;12.80;99.90;;;;;;5024493;28;20253;-49
2023/05/10 04:57:24;;;;;;;11.27;5.93;;;12.90;99.90;;;;;;5025062;28;20175;-49
2023/05/10 04:59:50;;;;;;;9.00;6.07;;;13.00;99.90;;;;;;5026103;28;20226;-49
2023/05/10 05:02:16;;;;;;;8.73;6.57;;;13.00;99.90;;;;;;5027850;28;20194;-49
2023/05/10 05:04:42;;;;;;;10.70;6.80;;;13.10;99.90;;;;;;5025890;28;20184;-48
2023/05/10 05:07:07;;;;;;;9.33;6.03;;;13.20;99.90;;;;;;5025422;28;20199;-49
2023/05/10 05:09:33;;;;;;;8.80;6.20;;;13.30;99.90;;;;;;5024866;28;20192;-48
2023/05/10 05:11:59;;;;;;;7.20;5.73;;;13.30;99.90;;;;;;5027773;28;20202;-49
2023/05/10 05:14:25;;;;;;;9.53;6.07;;;13.40;99.90;;;;;;5027427;28;20211;-48
2023/05/10 05:16:51;;;;;;;10.23;6.23;;;13.50;99.90;;;;;;5022021;28;20977;-48
2023/05/10 05:19:17;;;;;;;8.20;5.97;;;13.60;99.90;;;;;;5027096;28;20278;-49
2023/05/10 05:21:43;;;;;;;9.17;6.70;;;13.70;99.90;;;;;;5027404;28;21060;-49
2023/05/10 05:24:09;;;;;;;9.60;5.50;;;13.80;99.90;;;;;;5023333;28;20179;-49
2023/05/10 05:26:35;;;;;;;6.40;5.60;;;13.90;99.90;;;;;;5024497;28;20188;-49
2023/05/10 05:29:01;;;;;;;6.70;6.10;;;14.10;99.90;;;;;;5027252;28;20441;-49
2023/05/10 05:31:26;;;;;;;9.03;5.90;;;14.10;99.90;;;;;;5027088;28;20191;-49
2023/05/10 05:33:52;;;;;;;7.00;5.90;;;14.20;99.90;;;;;;5026567;28;20211;-49
2023/05/10 05:36:18;;;;;;;7.93;6.00;;;14.20;99.90;;;;;;5024897;28;20210;-50
2023/05/10 05:38:43;;;;;;;7.60;6.00;;;14.30;99.90;;;;;;5026122;28;20274;-49
2023/05/10 05:41:09;;;;;;;6.97;6.10;;;14.60;99.90;;;;;;5026028;28;20186;-49
2023/05/10 05:43:34;;;;;;;9.37;6.17;;;14.80;99.90;;;;;;5027583;28;20185;-49
2023/05/10 05:46:00;;;;;;;12.57;5.70;;;15.00;99.90;;;;;;5024492;28;20672;-49
2023/05/10 05:48:26;;;;;;;7.80;6.90;;;15.20;99.90;;;;;;5027698;28;20191;-49
2023/05/10 05:50:55;;;;;;;9.23;6.70;;;15.50;99.90;;;;;;5023118;28;20245;-49
2023/05/10 05:53:21;;;;;;;10.83;6.20;;;15.50;99.90;;;;;;5024447;28;20501;-49
2023/05/10 05:55:58;;;;;;;8.27;5.83;;;15.40;99.90;;;;;;5027628;28;20450;-48
2023/05/10 05:58:24;;;;;;;10.47;6.37;;;15.50;99.90;;;;;;5024588;28;20209;-50
2023/05/10 06:00:51;;;;;;;7.23;6.07;;;15.70;99.90;;;;;;5023828;28;20454;-49
2023/05/10 06:03:17;;;;;;;7.73;6.50;;;15.80;99.90;;;;;;5025648;28;20807;-49
2023/05/10 06:05:43;;;;;;;7.63;6.57;;;15.90;99.90;;;;;;5024691;28;20434;-49
2023/05/10 06:08:09;;;;;;;10.33;6.03;;;15.90;99.90;;;;;;5024806;28;20980;-49
2023/05/10 06:10:35;;;;;;;9.30;6.23;;;16.10;99.90;;;;;;5025286;28;20201;-49
2023/05/10 06:13:00;;;;;;;7.60;5.63;;;16.10;99.90;;;;;;5025074;28;20516;-49
2023/05/10 06:15:27;;;;;;;8.33;6.30;;;16.20;99.90;;;;;;5022883;28;20232;-49
2023/05/10 06:17:52;;;;;;;10.57;6.60;;;16.20;99.90;;;;;;5023907;28;20535;-49
2023/05/10 06:20:18;;;;;;;6.63;5.57;;;16.20;99.90;;;;;;5020390;28;20440;-49
2023/05/10 06:22:43;;;;;;;7.60;6.13;;;16.20;99.90;;;;;;5025436;28;20741;-50
2023/05/10 06:25:10;;;;;;;13.80;6.40;;;16.30;99.90;;;;;;5029977;28;20189;-49
2023/05/10 06:27:35;;;;;;;11.30;6.73;;;16.30;99.90;;;;;;5020649;28;20189;-49
2023/05/10 06:30:02;;;;;;;13.75;6.13;;;16.10;99.90;;;;;;5032711;28;20937;-49
2023/05/10 06:32:28;;;;;;;8.90;6.13;;;16.00;99.90;;;;;;5031702;28;20194;-49
2023/05/10 06:34:53;;;;;;;8.52;5.60;;;16.00;99.90;;;;;;5025183;28;20770;-49
2023/05/10 06:37:19;;;;;;;9.37;6.13;;;16.20;99.90;;;;;;5027571;28;20240;-49
2023/05/10 06:39:44;;;;;;;10.23;6.83;;;16.10;99.90;;;;;;5024807;28;20188;-49
2023/05/10 06:42:10;;;;;;;11.30;6.37;;;16.10;99.90;;;;;;5025377;28;20205;-49
2023/05/10 06:44:36;;;;;;;66.60;36.67;;;16.00;99.90;;;;;;5024874;28;20735;-49
2023/05/10 06:47:01;;;;;;;12.87;7.37;;;16.00;99.90;;;;;;5026186;28;20538;-49
2023/05/10 06:49:27;;;;;;;8.10;7.03;;;16.00;99.90;;;;;;5027712;28;20232;-49
2023/05/10 06:51:53;;;;;;;10.43;6.60;;;16.00;99.90;;;;;;5027021;28;20607;-49
2023/05/10 06:54:19;;;;;;;11.73;6.20;;;16.10;99.90;;;;;;5024435;28;21997;-49
2023/05/10 06:56:44;;;;;;;8.43;6.23;;;16.20;99.90;;;;;;5024675;28;20431;-49
2023/05/10 06:59:10;;;;;;;10.13;6.00;;;16.40;99.90;;;;;;5025672;28;20222;-49
2023/05/10 07:01:35;;;;;;;13.30;6.40;;;16.60;99.90;;;;;;5023123;28;20810;-50
2023/05/10 07:04:01;;;;;;;10.30;7.13;;;17.10;99.90;;;;;;5026439;28;20198;-49
2023/05/10 07:06:27;;;;;;;13.13;6.97;;;17.50;99.90;;;;;;5025484;28;20687;-49
2023/05/10 07:08:52;;;;;;;26.63;7.23;;;17.80;99.90;;;;;;5027427;28;20189;-50
2023/05/10 07:11:18;;;;;;;13.53;6.90;;;18.10;99.90;;;;;;5023074;28;20191;-50
2023/05/10 07:13:46;;;;;;;9.23;6.43;;;18.40;99.90;;;;;;5024879;28;20215;-50
2023/05/10 07:16:11;;;;;;;8.97;5.90;;;18.80;99.90;;;;;;5025002;28;20579;-50
2023/05/10 07:18:37;;;;;;;8.63;6.33;;;19.00;99.90;;;;;;5024064;28;20426;-50
2023/05/10 07:21:03;;;;;;;8.00;5.80;;;19.30;99.90;;;;;;5025979;28;20218;-51
2023/05/10 07:23:29;;;;;;;8.20;6.60;;;19.90;99.90;;;;;;5025854;28;20272;-50
2023/05/10 07:25:57;;;;;;;6.87;5.90;;;20.20;99.90;;;;;;5024969;28;20186;-50
2023/05/10 07:28:23;;;;;;;9.60;6.43;;;19.80;99.90;;;;;;5025421;28;20437;-51
2023/05/10 07:30:49;;;;;;;6.67;5.97;;;19.50;99.90;;;;;;5023854;28;20456;-50
2023/05/10 07:33:15;;;;;;;11.50;7.20;;;19.30;99.90;;;;;;5026276;28;20485;-51
2023/05/10 07:35:41;;;;;;;7.63;5.63;;;19.10;99.90;;;;;;5029722;28;20457;-50
2023/05/10 07:38:07;;;;;;;8.33;5.63;;;18.90;99.90;;;;;;5028825;28;20227;-51
2023/05/10 07:40:33;;;;;;;13.33;6.20;;;18.90;99.90;;;;;;5029022;28;20513;-51
2023/05/10 07:43:00;;;;;;;14.10;6.20;;;19.10;99.90;;;;;;5027612;28;20426;-51
2023/05/10 07:45:26;;;;;;;9.87;6.40;;;19.40;99.90;;;;;;5029918;28;20281;-50
2023/05/10 07:47:52;;;;;;;7.90;5.60;;;19.50;99.90;;;;;;5028719;28;20516;-52
2023/05/10 07:50:17;;;;;;;8.43;6.20;;;19.50;99.90;;;;;;5027464;28;20329;-52
2023/05/10 07:52:43;;;;;;;8.30;5.90;;;19.50;99.90;;;;;;5026203;28;20312;-51
2023/05/10 07:55:09;;;;;;;7.33;6.10;;;19.30;99.90;;;;;;5026372;28;20193;-51
2023/05/10 07:57:35;;;;;;;10.63;5.87;;;19.20;99.90;;;;;;5028005;28;20572;-51
2023/05/10 08:00:00;;;;;;;13.33;8.50;;;19.10;99.90;;;;;;5026842;28;20499;-52
2023/05/10 08:02:26;;;;;;;8.20;6.00;;;18.80;99.90;;;;;;5029090;28;20193;-51
2023/05/10 08:04:52;;;;;;;6.88;5.80;;;18.40;99.90;;;;;;5025928;28;20534;-50
2023/05/10 08:07:18;;;;;;;7.90;6.53;;;18.20;99.90;;;;;;5028347;28;20308;-50
2023/05/10 08:09:43;;;;;;;10.10;6.03;;;18.00;99.90;;;;;;5026833;28;20991;-50
2023/05/10 08:12:09;;;;;;;7.20;6.00;;;18.10;99.90;;;;;;5029417;28;20198;-51
2023/05/10 08:14:36;;;;;;;6.73;6.07;;;18.10;99.90;;;;;;5029038;28;20227;-51
2023/05/10 08:17:03;;;;;;;9.40;6.23;;;18.20;99.90;;;;;;5026503;28;20281;-50
2023/05/10 08:19:28;;;;;;;12.20;5.60;;;18.10;99.90;;;;;;5030500;28;20510;-50
2023/05/10 08:21:55;;;;;;;9.43;6.30;;;18.10;99.90;;;;;;5026043;28;20944;-49
2023/05/10 08:24:21;;;;;;;7.97;6.10;;;18.00;99.90;;;;;;5028043;28;20276;-50
2023/05/10 08:26:47;;;;;;;8.23;6.60;;;18.00;99.90;;;;;;5027297;28;20449;-50
2023/05/10 08:29:13;;;;;;;7.67;5.90;;;17.90;99.90;;;;;;5028896;28;20812;-51
2023/05/10 08:31:39;;;;;;;9.23;5.97;;;18.10;99.90;;;;;;5028166;28;20444;-52
2023/05/10 08:34:04;;;;;;;7.30;6.10;;;18.30;99.90;;;;;;5028959;28;20498;-53
2023/05/10 08:36:31;;;;;;;8.73;5.80;;;18.40;99.90;;;;;;5027848;28;20497;-51
2023/05/10 08:38:57;;;;;;;9.37;6.07;;;18.60;99.90;;;;;;5026605;28;20261;-50
2023/05/10 08:41:25;;;;;;;11.70;6.20;;;18.90;99.90;;;;;;5028605;28;20941;-51
2023/05/10 08:43:51;;;;;;;8.17;6.20;;;18.90;99.90;;;;;;5025526;28;20234;-51
2023/05/10 08:46:18;;;;;;;6.38;5.63;;;18.80;99.90;;;;;;5026126;28;20934;-50
2023/05/10 08:48:45;;;;;;;7.67;5.70;;;18.90;99.90;;;;;;5027913;28;20669;-51
2023/05/10 08:51:16;;;;;;;7.47;6.33;;;18.90;99.90;;;;;;5024730;28;20543;-49
2023/05/10 08:53:42;;;;;;;9.73;5.87;;;19.00;99.90;;;;;;5028149;28;20487;-50
2023/05/10 08:56:08;;;;;;;7.47;5.77;;;19.00;99.90;;;;;;5026218;28;20442;-50
2023/05/10 08:58:33;;;;;;;6.27;5.43;;;19.20;99.90;;;;;;5027253;28;20964;-53
2023/05/10 09:01:00;;;;;;;8.87;6.30;;;19.50;99.90;;;;;;5027908;28;24141;-51
2023/05/10 09:03:26;;;;;;;8.87;6.40;;;19.60;99.90;;;;;;5028272;28;20232;-51
2023/05/10 09:05:52;;;;;;;12.20;6.80;;;19.50;99.90;;;;;;5028625;28;20468;-51
2023/05/10 09:08:18;;;;;;;10.63;6.45;;;19.40;99.90;;;;;;5025151;28;20418;-50
2023/05/10 09:10:46;;;;;;;8.50;7.00;;;19.00;99.90;;;;;;5028241;28;20249;-50
2023/05/10 09:13:14;;;;;;;9.13;7.00;;;18.90;99.90;;;;;;5025345;28;20984;-50
2023/05/10 09:15:40;;;;;;;13.00;6.97;;;19.00;99.90;;;;;;5027399;28;20531;-51
2023/05/10 09:18:06;;;;;;;15.30;7.00;;;19.10;99.90;;;;;;5028335;28;20533;-51
2023/05/10 09:20:31;;;;;;;10.20;6.90;;;19.10;99.90;;;;;;5026921;28;20642;-51
2023/05/10 09:22:57;;;;;;;16.13;7.07;;;18.90;99.90;;;;;;5027770;28;20696;-50
2023/05/10 09:25:22;;;;;;;9.43;6.80;;;18.70;99.90;;;;;;5026363;28;20186;-51
2023/05/10 09:27:48;;;;;;;19.80;8.23;;;18.40;99.90;;;;;;5025928;28;20190;-51
2023/05/10 09:30:28;;;;;;;8.13;6.45;;;18.30;99.90;;;;;;5024962;28;20902;-50
2023/05/10 09:32:55;;;;;;;11.77;8.00;;;18.20;99.90;;;;;;5024972;28;20222;-50
2023/05/10 09:35:23;;;;;;;9.23;6.83;;;18.20;99.90;;;;;;5026896;28;20813;-51
2023/05/10 09:37:53;;;;;;;10.82;6.80;;;18.30;99.90;;;;;;5025070;28;20749;-50
2023/05/10 09:40:23;;;;;;;10.30;8.23;;;18.30;99.90;;;;;;5026522;28;20223;-50
2023/05/10 09:42:57;;;;;;;8.80;7.60;;;18.10;99.90;;;;;;5026695;28;20809;-51
2023/05/10 09:45:25;;;;;;;14.00;8.03;;;17.70;99.90;;;;;;5027730;28;20467;-50
2023/05/10 09:47:51;;;;;;;9.53;7.63;;;17.30;99.90;;;;;;5026568;28;20433;-50
2023/05/10 09:50:17;;;;;;;13.83;8.60;;;17.00;99.90;;;;;;5027344;28;20480;-50
2023/05/10 09:52:59;;;;;;;12.77;8.80;;;16.50;99.90;;;;;;5026795;28;20812;-50
2023/05/10 09:55:38;;;;;;;9.27;8.27;;;16.30;99.90;;;;;;5025660;28;20190;-50
2023/05/10 09:58:04;;;;;;;15.13;8.90;;;16.00;99.90;;;;;;5025188;28;20844;-50
2023/05/10 10:00:36;;;;;;;10.87;9.00;;;15.90;99.90;;;;;;5025735;28;20438;-52
2023/05/10 10:03:03;;;;;;;19.73;10.00;;;15.80;99.90;;;;;;5026904;28;20537;-50
2023/05/10 10:05:32;;;;;;;13.83;8.97;;;15.60;99.90;;;;;;5025322;28;20971;-50
2023/05/10 10:07:59;;;;;;;14.30;9.20;;;15.50;99.90;;;;;;5023811;28;21070;-50
2023/05/10 10:10:25;;;;;;;14.00;8.90;;;15.30;99.90;;;;;;5025136;28;20494;-50
2023/05/10 10:12:52;;;;;;;12.80;9.17;;;15.20;99.90;;;;;;5027271;28;20482;-50
2023/05/10 10:15:18;;;;;;;18.00;9.73;;;15.10;1.00;;;;;;5024535;28;20444;-50
2023/05/10 10:17:44;;;;;;;13.63;9.73;;;15.00;1.00;;;;;;5026686;28;20450;-50
2023/05/10 10:20:10;;;;;;;16.60;9.60;;;14.90;1.00;;;;;;5026057;28;20431;-50
2023/05/10 10:22:37;;;;;;;14.30;10.20;;;14.90;1.00;;;;;;5025797;28;20204;-50
2023/05/10 10:25:04;;;;;;;12.37;10.53;;;14.80;1.00;;;;;;5021593;28;20815;-50
2023/05/10 10:27:51;;;;;;;14.93;10.07;;;14.80;1.00;;;;;;5022855;28;20425;-51
2023/05/10 10:30:29;;;;;;;16.33;11.10;;;14.80;1.00;;;;;;5023039;28;20992;-51
2023/05/10 10:33:26;;;;;;;13.13;10.23;;;14.80;1.00;;;;;;5029180;28;20205;-50
2023/05/10 10:35:53;;;;;;;10.80;9.30;;;14.70;1.00;;;;;;5022294;28;20479;-52
2023/05/10 10:38:18;;;;;;;17.20;11.00;;;14.70;1.00;;;;;;5016939;28;20451;-52
2023/05/10 10:40:44;;;;;;;13.17;10.47;;;14.80;1.00;;;;;;5024237;28;20960;-53
2023/05/10 10:43:27;;;;;;;15.17;11.30;;;14.90;1.00;;;;;;5025487;28;20232;-53
2023/05/10 10:46:14;;;;;;;16.05;11.57;;;14.90;1.00;;;;;;5022559;28;20427;-53
2023/05/10 10:48:41;;;;;;;15.60;11.07;;;15.10;1.00;;;;;;5023472;28;20257;-53
2023/05/10 10:51:07;;;;;;;16.53;11.37;;;15.40;1.00;;;;;;5025585;28;20475;-53
2023/05/10 10:53:33;;;;;;;12.73;10.60;;;15.50;1.00;;;;;;5023121;28;20538;-53
2023/05/10 10:56:07;;;;;;;18.73;11.20;;;15.50;1.00;;;;;;5024480;28;20190;-53
2023/05/10 10:58:33;;;;;;;16.10;12.57;;;15.60;1.00;;;;;;5022821;28;20475;-53
2023/05/10 11:01:12;;;;;;;14.40;11.57;;;15.60;1.00;;;;;;5025817;28;20533;-53
2023/05/10 11:03:38;;;;;;;17.00;12.00;;;15.70;1.00;;;;;;5022844;28;20438;-53
2023/05/10 11:06:04;;;;;;;14.97;11.63;;;15.60;1.00;;;;;;5026005;28;21245;-52
2023/05/10 11:08:31;;;;;;;13.33;11.63;;;15.50;1.00;;;;;;5025696;28;20190;-52
2023/05/10 11:11:00;;;;;;;13.80;11.60;;;15.50;1.00;;;;;;5025447;28;20720;-53
2023/05/10 11:13:34;;;;;;;17.53;11.60;;;15.50;1.00;;;;;;5025323;28;20496;-52
2023/05/10 11:16:17;;;;;;;15.97;12.77;;;15.40;1.00;;;;;;5027087;28;20441;-54
2023/05/10 11:18:53;;;;;;;12.60;11.13;;;15.40;1.00;;;;;;5024436;28;20470;-53
2023/05/10 11:21:18;;;;;;;14.60;11.87;;;15.50;1.00;;;;;;5026358;28;20453;-53
2023/05/10 11:23:50;;;;;;;16.10;12.27;;;15.50;1.00;;;;;;5023697;28;20442;-52
2023/05/10 11:26:16;;;;;;;14.40;11.87;;;15.60;1.00;;;;;;5026029;28;20273;-53
2023/05/10 11:28:46;;;;;;;16.47;11.93;;;15.50;1.00;;;;;;5024752;28;20869;-53
2023/05/10 11:31:18;;;;;;;19.57;12.60;;;15.40;1.00;;;;;;5024877;28;20186;-53
2023/05/10 11:33:44;;;;;;;16.77;11.83;;;15.30;1.00;;;;;;5022512;28;20474;-52
2023/05/10 11:36:19;;;;;;;13.80;11.63;;;15.40;1.00;;;;;;5025257;28;20880;-53
2023/05/10 11:38:45;;;;;;;15.57;11.67;;;15.40;1.00;;;;;;5025133;28;20445;-53
2023/05/10 11:41:12;;;;;;;17.50;13.50;;;15.30;1.00;;;;;;5025683;28;20524;-52
2023/05/10 11:43:41;;;;;;;14.97;12.00;;;15.30;1.00;;;;;;5025265;28;20539;-53
2023/05/10 11:46:12;;;;;;;15.70;13.30;;;15.30;1.00;;;;;;5025803;28;20955;-52
2023/05/10 11:48:41;;;;;;;17.70;14.20;;;15.30;1.00;;;;;;5026456;28;20449;-52
2023/05/10 11:51:08;;;;;;;14.83;12.53;;;15.30;1.00;;;;;;5025712;28;20474;-53
2023/05/10 11:53:34;;;;;;;18.40;13.70;;;15.40;1.00;;;;;;5025764;28;20486;-53
2023/05/10 11:56:07;;;;;;;15.23;13.57;;;15.40;1.00;;;;;;5024961;28;20448;-52
2023/05/10 11:58:33;;;;;;;18.27;12.40;;;15.30;4.00;;;;;;5023416;28;20185;-53
2023/05/10 12:00:59;;;;;;;13.83;11.67;;;15.30;1.00;;;;;;5026099;28;20511;-53
2023/05/10 12:03:26;;;;;;;13.33;10.90;;;15.30;1.00;;;;;;5025770;28;20499;-53
2023/05/10 12:05:52;;;;;;;12.73;11.33;;;15.30;1.00;;;;;;5025889;28;20792;-53
2023/05/10 12:08:24;;;;;;;15.57;11.20;;;15.20;41.60;;;;;;5026048;28;20437;-52
2023/05/10 12:10:50;;;;;;;15.70;11.30;;;15.30;96.90;;;;;;5024296;28;20193;-52
2023/05/10 12:13:17;;;;;;;15.77;12.40;;;15.40;99.90;;;;;;5025875;28;20989;-52
2023/05/10 12:15:43;;;;;;;17.83;12.83;;;15.50;99.90;;;;;;5024497;28;20441;-52
2023/05/10 12:18:13;;;;;;;14.83;11.30;;;15.70;99.90;;;;;;5025995;28;20450;-53
2023/05/10 12:20:39;;;;;;;12.87;10.40;;;15.70;51.30;;;;;;5029421;28;20444;-52
2023/05/10 12:23:05;;;;;;;9.37;8.43;;;15.70;73.30;;;;;;5028667;28;20787;-52
2023/05/10 12:25:36;;;;;;;9.80;8.20;;;15.80;14.70;;;;;;5030583;28;20440;-53
2023/05/10 12:28:07;;;;;;;13.40;10.97;;;15.70;9.10;;;;;;5028500;28;20195;-52
2023/05/10 12:30:34;;;;;;;18.00;11.80;;;15.50;5.10;;;;;;5029621;28;20437;-52
2023/05/10 12:33:08;;;;;;;13.90;12.00;;;15.50;80.70;;;;;;5030284;28;20475;-52
2023/05/10 12:35:53;;;;;;;15.20;10.50;;;15.60;99.90;;;;;;5030477;28;23881;-52
2023/05/10 12:38:37;;;;;;;13.37;10.97;;;15.80;99.90;;;;;;5030357;28;20449;-52
2023/05/10 12:41:05;;;;;;;13.00;10.53;;;16.10;99.90;;;;;;5023481;28;20571;-52
2023/05/10 12:43:32;;;;;;;13.23;11.03;;;16.10;61.20;;;;;;5029201;28;20451;-53
2023/05/10 12:45:58;;;;;;;20.90;13.10;;;16.10;63.60;;;;;;5029421;28;20435;-52
2023/05/10 12:48:24;;;;;;;15.30;12.90;;;16.20;99.90;;;;;;5026364;28;20488;-51